Time;durP1;ratioP1;P1;durP2;ratioP2;P2;SDS_P1;SDS_P2;PMS_P1;PMS_P2;Temp;Humidity;BMP_temperature;BMP_pressure;BME280_temperature;BME280_humidity;BME280_pressure;Samples;Min_cycle;Max_cycle;Signal;HPM_P1;HPM_P2
2022/07/07 00:00:51;;;;;;;64.10;35.03;;;;;;;21.02;77.07;99178.31;5066999;28;20026;-91
2022/07/07 00:03:18;;;;;;;58.47;35.95;;;;;;;21.02;77.07;99187.47;5042196;28;20060;-88
2022/07/07 00:05:51;;;;;;;64.85;35.17;;;;;;;21.37;77.25;99235.41;5022499;28;20042;-88
2022/07/07 00:08:17;;;;;;;63.90;35.78;;;;;;;21.17;77.01;99216.16;5064217;28;20028;-88
2022/07/07 00:10:43;;;;;;;58.67;36.25;;;;;;;21.11;78.03;99201.03;5052794;28;20102;-90
2022/07/07 00:13:10;;;;;;;67.47;36.60;;;;;;;21.16;77.96;99208.19;5021178;28;20068;-92
2022/07/07 00:15:39;;;;;;;61.80;36.42;;;;;;;21.25;78.27;99228.91;5034806;28;20162;-90
2022/07/07 00:18:06;;;;;;;64.65;36.75;;;;;;;21.22;78.07;99206.66;5031737;28;20101;-88
2022/07/07 00:20:32;;;;;;;;;;;;;;;21.38;77.56;99231.41;5058189;28;20105;-94
2022/07/07 00:23:01;;;;;;;62.22;35.92;;;;;;;21.04;77.92;99187.88;5064728;28;19997;-89
2022/07/07 00:25:32;;;;;;;66.45;35.80;;;;;;;21.34;78.09;99232.19;5033027;28;20024;-91
2022/07/07 00:28:01;;;;;;;60.40;34.55;;;;;;;21.22;78.12;99218.56;5032236;28;20399;-92
2022/07/07 00:30:28;;;;;;;56.35;32.78;;;;;;;21.23;77.96;99230.50;5014822;28;20055;-88
2022/07/07 00:32:54;;;;;;;65.05;37.65;;;;;;;21.13;78.29;99203.44;5030449;28;20049;-88
2022/07/07 00:35:21;;;;;;;58.85;34.30;;;;;;;21.10;78.23;99202.22;5005062;28;20078;-88
2022/07/07 00:37:48;;;;;;;64.95;36.17;;;;;;;21.10;78.62;99210.56;4975296;28;20503;-88
2022/07/07 00:40:14;;;;;;;61.55;35.97;;;;;;;20.97;78.21;99178.72;4972281;28;20083;-88
2022/07/07 00:42:41;;;;;;;63.83;36.83;;;;;;;20.92;78.24;99170.72;4996076;28;20061;-88
2022/07/07 00:45:07;;;;;;;66.63;36.40;;;;;;;20.99;78.24;99185.47;4990908;28;20051;-95
2022/07/07 00:47:35;;;;;;;59.13;35.05;;;;;;;20.94;77.87;99177.50;4992506;28;20077;-88
2022/07/07 00:50:01;;;;;;;64.63;36.60;;;;;;;21.07;78.67;99203.78;4989110;28;20038;-96
2022/07/07 00:52:28;;;;;;;72.93;36.90;;;;;;;20.99;77.99;99191.03;4979010;28;20054;-96
2022/07/07 00:54:59;;;;;;;58.25;37.42;;;;;;;21.14;77.73;99208.59;4991041;28;20034;-88
2022/07/07 00:57:45;;;;;;;56.47;34.97;;;;;;;20.94;77.41;99196.16;4975054;28;20430;-93
2022/07/07 01:00:19;;;;;;;67.90;35.90;;;;;;;21.00;77.96;99200.97;4972931;28;20522;-95
2022/07/07 01:02:45;;;;;;;61.13;36.13;;;;;;;20.78;78.11;99176.97;4989341;28;20042;-95
2022/07/07 01:05:11;;;;;;;67.20;35.90;;;;;;;20.99;78.24;99209.66;4943568;28;20062;-88
2022/07/07 01:07:38;;;;;;;55.70;35.55;;;;;;;21.00;78.67;99214.84;4977037;28;20038;-90
2022/07/07 01:10:09;;;;;;;61.50;36.15;;;;;;;20.84;78.82;99186.53;4989067;28;20042;-89
2022/07/07 01:12:41;;;;;;;69.70;34.65;;;;;;;21.19;78.22;99232.44;5012281;28;20079;-90
2022/07/07 01:15:10;;;;;;;59.45;36.28;;;;;;;20.91;77.97;99202.47;5033539;28;20128;-95
2022/07/07 01:17:37;;;;;;;60.47;36.40;;;;;;;20.79;78.23;99187.69;5047196;28;20042;-95
2022/07/07 01:20:06;;;;;;;58.00;34.67;;;;;;;20.79;78.06;99187.69;5050017;28;20080;-88
2022/07/07 01:22:35;;;;;;;60.28;35.65;;;;;;;20.78;78.12;99180.53;5066728;28;20041;-86
2022/07/07 01:25:03;;;;;;;56.45;34.45;;;;;;;20.88;78.07;99204.03;5043396;28;20041;-88
2022/07/07 01:27:30;;;;;;;70.22;36.80;;;;;;;21.03;78.11;99218.84;5059787;28;20111;-89
2022/07/07 01:29:57;;;;;;;64.57;36.08;;;;;;;21.17;78.48;99232.84;5048516;28;20033;-88
2022/07/07 01:32:25;;;;;;;62.75;36.65;;;;;;;21.21;77.55;99244.00;5030210;28;20055;-91
2022/07/07 01:34:53;;;;;;;58.13;35.80;;;;;;;21.19;78.07;99244.38;4998138;28;20053;-92
2022/07/07 01:37:20;;;;;;;62.47;36.45;;;;;;;20.79;78.00;99178.56;5044763;28;20033;-88
2022/07/07 01:39:47;;;;;;;64.28;36.28;;;;;;;21.21;78.18;99239.22;5029600;28;20021;-88
2022/07/07 01:42:14;;;;;;;;;;;;;;;21.21;77.60;99230.88;5013924;28;20053;-89
2022/07/07 01:44:40;;;;;;;;;;;;;;;21.23;78.17;99236.88;5035046;28;19932;-90
2022/07/07 01:47:09;;;;;;;61.60;34.20;;;;;;;21.09;78.44;99225.63;5035601;28;19991;-89
2022/07/07 01:49:36;;;;;;;58.53;34.55;;;;;;;20.79;78.15;99179.34;5044251;28;20046;-96
2022/07/07 01:52:04;;;;;;;59.25;34.40;;;;;;;21.11;77.71;99217.72;5028796;28;20036;-87
2022/07/07 01:54:34;;;;;;;63.88;36.42;;;;;;;21.13;78.14;99226.47;5016435;28;20084;-96
2022/07/07 01:57:02;;;;;;;65.85;36.80;;;;;;;20.98;78.08;99191.41;5024875;28;20112;-88
2022/07/07 01:59:28;;;;;;;69.57;39.20;;;;;;;20.88;77.81;99179.81;5064429;28;20052;-96
2022/07/07 02:01:55;;;;;;;65.35;37.35;;;;;;;21.06;77.91;99195.84;5023884;28;20518;-88
2022/07/07 02:04:21;;;;;;;71.88;37.47;;;;;;;20.88;77.33;99162.34;5042852;28;20053;-88
2022/07/07 02:06:51;;;;;;;70.68;36.25;;;;;;;20.94;76.57;99165.59;5050524;28;20058;-88
2022/07/07 02:09:17;;;;;;;71.97;35.45;;;;;;;21.20;76.90;99201.50;5028882;28;20041;-96
2022/07/07 02:11:44;;;;;;;68.97;36.00;;;;;;;21.41;76.41;99236.22;5028920;28;20139;-95
2022/07/07 02:14:13;;;;;;;75.35;35.25;;;;;;;21.34;76.31;99221.06;5046867;28;20071;-95
2022/07/07 02:16:39;;;;;;;68.45;34.55;;;;;;;21.16;76.58;99188.75;5041399;28;20044;-96
2022/07/07 02:19:07;;;;;;;75.65;34.00;;;;;;;21.44;76.73;99230.66;5045759;28;20040;-89
2022/07/07 02:21:35;;;;;;;58.25;34.13;;;;;;;21.18;76.36;99181.63;5041519;28;20068;-94
2022/07/07 02:24:02;;;;;;;62.35;34.60;;;;;;;21.50;76.05;99228.31;5041787;28;20049;-88
2022/07/07 02:26:29;;;;;;;52.58;32.08;;;;;;;21.38;76.06;99217.53;5024962;28;20069;-89
2022/07/07 02:28:55;;;;;;;64.07;32.33;;;;;;;21.16;76.19;99189.56;5026434;28;20436;-93
2022/07/07 02:31:22;;;;;;;58.80;32.38;;;;;;;21.23;76.19;99202.72;5037003;28;20045;-96
2022/07/07 02:33:48;;;;;;;71.07;33.20;;;;;;;21.39;75.88;99219.09;5037512;28;20037;-87
2022/07/07 02:36:14;;;;;;;59.30;31.90;;;;;;;21.35;75.51;99211.53;5011412;28;20053;-90
2022/07/07 02:38:43;;;;;;;57.33;30.38;;;;;;;21.28;75.18;99194.78;4982885;28;20042;-96
2022/07/07 02:41:10;;;;;;;57.33;29.95;;;;;;;21.41;75.23;99208.41;4998420;28;20116;-91
2022/07/07 02:43:36;;;;;;;;;;;;;;;21.59;75.34;99231.56;4999167;28;20049;-89
2022/07/07 02:46:03;;;;;;;50.38;27.92;;;;;;;21.60;74.71;99226.78;5033681;28;20401;-95
2022/07/07 02:48:32;;;;;;;52.35;30.38;;;;;;;21.48;74.92;99206.44;5032001;28;20500;-91
2022/07/07 02:50:58;;;;;;;53.00;29.42;;;;;;;21.66;75.31;99228.03;4999457;28;20041;-93
2022/07/07 02:53:25;;;;;;;54.20;31.48;;;;;;;21.42;75.22;99191.31;5037679;28;20055;-90
2022/07/07 02:55:51;;;;;;;52.58;30.10;;;;;;;21.58;75.34;99216.03;5037948;28;20043;-94
2022/07/07 02:58:20;;;;;;;54.03;28.20;;;;;;;21.61;74.32;99206.13;5022661;28;20042;-96
2022/07/07 03:00:47;;;;;;;50.40;28.63;;;;;;;21.51;74.31;99194.53;5019822;28;20120;-88
2022/07/07 03:03:14;;;;;;;50.03;27.85;;;;;;;21.57;74.07;99179.09;5057166;28;20537;-93
2022/07/07 03:05:40;;;;;;;46.13;28.30;;;;;;;21.99;74.02;99235.31;5039461;28;20036;-96
2022/07/07 03:08:07;;;;;;;42.53;27.63;;;;;;;21.94;72.51;99216.19;5033288;28;20030;-90
2022/07/07 03:10:33;;;;;;;39.97;25.88;;;;;;;21.94;72.02;99207.84;5022178;28;20061;-89
2022/07/07 03:12:59;;;;;;;45.88;27.63;;;;;;;21.91;72.18;99198.28;5037696;28;20041;-92
2022/07/07 03:15:25;;;;;;;51.25;26.50;;;;;;;22.21;72.15;99236.19;5042021;28;20046;-92
2022/07/07 03:17:52;;;;;;;43.28;25.98;;;;;;;22.19;72.25;99211.56;5019751;28;20445;-90
2022/07/07 03:20:18;;;;;;;70.28;25.98;;;;;;;22.25;72.36;99204.41;5036155;28;20044;-96
2022/07/07 03:22:44;;;;;;;51.40;25.75;;;;;;;22.37;71.28;99214.38;5003166;28;20133;-90
2022/07/07 03:25:11;;;;;;;43.45;26.73;;;;;;;22.54;71.66;99218.38;5021751;28;20129;-88
2022/07/07 03:27:38;;;;;;;;;;;;;;;22.90;71.27;99263.00;5008362;28;20116;-96
2022/07/07 03:30:09;;;;;;;38.38;24.92;;;;;;;22.71;70.61;99214.00;5026693;28;20028;-93
2022/07/07 03:32:37;;;;;;;48.45;25.38;;;;;;;22.64;70.34;99214.78;5035939;28;20498;-89
2022/07/07 03:35:03;;;;;;;46.20;25.25;;;;;;;22.65;69.11;99207.22;5043962;28;20086;-90
2022/07/07 03:37:32;;;;;;;39.65;26.23;;;;;;;22.92;68.41;99243.88;5064731;28;20170;-96
2022/07/07 03:39:58;;;;;;;49.65;25.23;;;;;;;23.12;70.07;99258.25;5031266;28;20049;-94
2022/07/07 03:42:24;;;;;;;50.25;26.80;;;;;;;23.09;70.03;99243.13;5027029;28;20055;-89
2022/07/07 03:44:50;;;;;;;45.42;25.63;;;;;;;22.97;70.07;99212.84;5049276;28;20043;-89
2022/07/07 03:47:16;;;;;;;47.00;27.00;;;;;;;23.11;69.71;99226.78;5062220;28;20045;-92
2022/07/07 03:49:43;;;;;;;43.28;25.92;;;;;;;23.12;69.09;99222.00;5043643;28;20033;-89
2022/07/07 03:52:11;;;;;;;40.05;24.75;;;;;;;23.27;68.51;99233.94;5037921;28;20040;-89
2022/07/07 03:54:37;;;;;;;34.45;23.23;;;;;;;23.23;69.03;99220.00;5046185;28;20502;-89
2022/07/07 03:57:04;;;;;;;43.78;26.02;;;;;;;23.27;68.21;99225.56;5043801;28;20507;-88
2022/07/07 03:59:30;;;;;;;38.45;25.27;;;;;;;23.28;67.20;99232.72;5022240;28;20033;-87
2022/07/07 04:01:56;;;;;;;40.35;24.95;;;;;;;23.35;67.98;99232.75;5026105;28;20541;-87
2022/07/07 04:04:23;;;;;;;45.65;25.42;;;;;;;23.39;67.51;99234.31;5060758;28;20041;-94
2022/07/07 04:06:49;;;;;;;43.38;26.02;;;;;;;23.46;67.59;99241.88;5042643;28;20041;-92
2022/07/07 04:09:15;;;;;;;42.03;25.05;;;;;;;23.49;67.53;99237.47;5025451;28;20037;-91
2022/07/07 04:11:41;;;;;;;45.05;24.90;;;;;;;23.55;67.29;99235.88;5012611;28;20101;-96
2022/07/07 04:14:07;;;;;;;37.80;24.75;;;;;;;23.65;67.33;99235.06;5053426;28;20021;-86
2022/07/07 04:16:33;;;;;;;46.90;24.42;;;;;;;23.72;66.53;99246.22;5066305;28;20465;-86
2022/07/07 04:19:02;;;;;;;38.10;24.50;;;;;;;23.74;66.61;99259.75;5063463;28;20067;-93
2022/07/07 04:21:28;;;;;;;44.17;24.55;;;;;;;23.80;66.98;99249.78;5040225;28;20045;-96
2022/07/07 04:24:17;;;;;;;37.17;23.85;;;;;;;23.68;66.05;99228.69;5032907;28;20126;-96
2022/07/07 04:26:48;;;;;;;42.20;23.70;;;;;;;23.59;65.88;99211.53;5009819;28;20045;-86
2022/07/07 04:29:16;;;;;;;46.30;24.60;;;;;;;23.99;65.99;99251.31;5023923;28;20061;-95
2022/07/07 04:31:45;;;;;;;38.30;24.33;;;;;;;23.84;65.79;99220.66;5033196;28;20457;-94
2022/07/07 04:34:15;;;;;;;38.90;24.75;;;;;;;24.05;65.98;99258.84;5048405;28;20017;-86
2022/07/07 04:36:42;;;;;;;42.88;23.65;;;;;;;23.78;65.62;99190.78;5046536;28;20080;-87
2022/07/07 04:39:11;;;;;;;47.00;25.05;;;;;;;24.11;65.80;99231.31;5021125;28;20029;-87
2022/07/07 04:41:37;;;;;;;42.10;23.13;;;;;;;24.23;65.51;99227.25;5023103;28;20014;-90
2022/07/07 04:44:05;;;;;;;48.45;23.88;;;;;;;24.38;65.79;99237.94;5022726;28;20049;-87
2022/07/07 04:46:32;;;;;;;44.35;24.55;;;;;;;24.60;66.21;99249.81;5026333;28;20041;-96
2022/07/07 04:49:01;;;;;;;55.63;27.23;;;;;;;24.42;66.43;99189.66;5004024;28;20137;-85
2022/07/07 04:51:28;;;;;;;51.58;27.48;;;;;;;24.55;65.38;99196.34;5022356;28;20053;-85
2022/07/07 04:53:54;;;;;;;;;;;;;;;24.96;65.47;99246.75;5011716;28;20076;-93
2022/07/07 04:56:20;;;;;;;52.08;24.67;;;;;;;24.95;63.05;99220.00;5032814;28;19976;-87
2022/07/07 04:58:46;;;;;;;51.00;25.88;;;;;;;24.92;64.12;99198.44;5015813;28;20112;-93
2022/07/07 05:01:12;;;;;;;43.45;23.75;;;;;;;24.91;63.27;99168.09;4998734;28;20521;-94
2022/07/07 05:03:38;;;;;;;39.17;23.88;;;;;;;25.18;62.11;99187.84;5010055;28;20053;-89
2022/07/07 05:06:05;;;;;;;48.30;23.92;;;;;;;25.39;62.00;99182.00;5015870;28;20038;-87
2022/07/07 05:08:31;;;;;;;38.55;22.30;;;;;;;25.60;60.44;99208.22;4999958;28;20041;-89
2022/07/07 05:10:57;;;;;;;35.80;22.92;;;;;;;25.45;61.60;99190.75;5001252;28;20042;-85
2022/07/07 05:13:23;;;;;;;70.53;26.50;;;;;;;25.41;62.00;99184.41;4999412;28;20041;-88
2022/07/07 05:15:49;;;;;;;57.78;24.40;;;;;;;25.41;62.00;99190.00;5027762;28;20053;-89
2022/07/07 05:18:15;;;;;;;50.08;23.42;;;;;;;25.52;63.46;99205.47;5041028;28;20037;-85
2022/07/07 05:20:41;;;;;;;42.60;24.75;;;;;;;25.54;62.76;99205.84;5013095;28;20046;-88
2022/07/07 05:23:08;;;;;;;43.00;24.00;;;;;;;25.62;62.41;99212.16;5053598;28;20025;-87
2022/07/07 05:25:34;;;;;;;47.22;23.38;;;;;;;25.52;62.71;99187.88;5032651;28;20060;-86
2022/07/07 05:28:00;;;;;;;73.50;25.27;;;;;;;25.72;63.88;99204.84;5003024;28;20054;-87
2022/07/07 05:30:27;;;;;;;49.13;24.15;;;;;;;25.86;62.58;99203.91;5009983;28;20042;-87
2022/07/07 05:32:54;;;;;;;51.70;22.73;;;;;;;25.86;61.85;99196.31;5029439;28;20079;-88
2022/07/07 05:35:20;;;;;;;46.10;23.60;;;;;;;26.15;61.44;99219.13;5017002;28;20046;-92
2022/07/07 05:37:46;;;;;;;44.58;22.85;;;;;;;26.24;60.43;99238.22;5046663;28;20034;-88
2022/07/07 05:40:13;;;;;;;33.22;20.88;;;;;;;26.15;60.19;99221.13;5018416;28;20041;-95
2022/07/07 05:42:39;;;;;;;;;;;;;;;26.30;60.30;99232.94;5021128;28;20120;-87
2022/07/07 05:45:05;;;;;;;;;;;;;;;26.33;60.94;99232.13;5021551;28;20425;-86
2022/07/07 05:47:32;;;;;;;34.80;20.65;;;;;;;26.19;59.89;99188.25;4982664;28;19927;-95
2022/07/07 05:49:58;;;;;;;35.35;21.73;;;;;;;26.41;61.11;99220.34;5000505;28;20033;-90
2022/07/07 05:52:26;;;;;;;42.97;23.13;;;;;;;26.51;60.04;99201.81;5008186;28;20161;-90
2022/07/07 05:54:52;;;;;;;42.42;22.52;;;;;;;26.60;59.69;99209.72;5026649;28;20038;-89
2022/07/07 05:57:18;;;;;;;38.03;21.85;;;;;;;26.15;59.89;99137.88;5026354;28;20044;-90
2022/07/07 06:00:03;;;;;;;48.03;22.48;;;;;;;26.68;60.63;99228.78;5021300;28;20045;-90
2022/07/07 06:02:38;;;;;;;45.92;22.63;;;;;;;26.23;60.50;99173.00;4988339;28;20116;-91
2022/07/07 06:05:09;;;;;;;38.47;22.70;;;;;;;26.43;58.73;99219.94;5010762;28;20112;-94
2022/07/07 06:07:37;;;;;;;42.05;23.75;;;;;;;26.31;59.67;99210.09;5044606;28;20044;-87
2022/07/07 06:10:06;;;;;;;44.05;23.45;;;;;;;26.08;59.25;99165.22;5019965;28;20069;-89
2022/07/07 06:12:33;;;;;;;43.95;23.98;;;;;;;26.26;60.01;99176.97;5004946;28;20041;-96
2022/07/07 06:15:00;;;;;;;51.50;22.52;;;;;;;26.07;59.21;99128.00;5021082;28;20045;-94
2022/07/07 06:17:26;;;;;;;37.22;21.35;;;;;;;26.36;59.63;99150.78;5017726;28;20068;-87
2022/07/07 06:19:53;;;;;;;53.65;24.20;;;;;;;26.56;59.56;99175.34;5020641;28;20050;-90
2022/07/07 06:22:38;;;;;;;45.60;24.30;;;;;;;26.69;58.92;99179.13;5010740;28;20161;-95
2022/07/07 06:25:09;;;;;;;37.60;24.13;;;;;;;26.73;58.97;99184.69;5044554;28;20081;-90
2022/07/07 06:27:36;;;;;;;44.22;23.52;;;;;;;26.72;60.54;99175.44;5032774;28;20038;-87
2022/07/07 06:30:04;;;;;;;50.22;24.98;;;;;;;26.92;59.10;99183.94;5048608;28;20045;-88
2022/07/07 06:32:31;;;;;;;56.67;25.17;;;;;;;26.99;58.74;99194.22;4999858;28;20033;-95
2022/07/07 06:34:57;;;;;;;38.30;25.08;;;;;;;26.78;57.43;99154.13;5040400;28;20050;-91
2022/07/07 06:37:24;;;;;;;53.75;24.75;;;;;;;26.81;56.27;99158.88;5006621;28;20034;-89
2022/07/07 06:39:50;;;;;;;43.58;23.90;;;;;;;26.77;55.84;99162.97;5005590;28;20041;-91
2022/07/07 06:42:21;;;;;;;45.97;24.83;;;;;;;26.59;55.17;99141.63;5017965;28;20044;-91
2022/07/07 06:44:51;;;;;;;42.55;22.52;;;;;;;26.77;54.51;99169.38;5006525;28;20570;-89
2022/07/07 06:47:18;;;;;;;44.42;24.63;;;;;;;27.01;53.77;99194.59;5000945;28;20046;-93
2022/07/07 06:49:48;;;;;;;51.83;25.63;;;;;;;27.04;55.66;99186.13;5046940;28;20049;-94
2022/07/07 06:52:14;;;;;;;45.10;23.88;;;;;;;27.13;55.37;99180.78;5024267;28;20038;-91
2022/07/07 06:55:05;;;;;;;45.15;26.05;;;;;;;26.96;55.70;99141.81;5022750;28;20148;-93
2022/07/07 06:57:31;;;;;;;43.40;24.45;;;;;;;27.04;55.07;99146.84;5032752;28;20084;-91
2022/07/07 06:59:57;;;;;;;48.00;27.35;;;;;;;27.26;55.09;99178.16;4999355;28;20037;-88
2022/07/07 07:02:25;;;;;;;38.15;26.45;;;;;;;27.58;55.36;99216.03;5008349;28;20099;-88
2022/07/07 07:04:54;;;;;;;48.80;27.08;;;;;;;27.26;54.84;99141.66;5004550;28;20053;-88
2022/07/07 07:07:20;;;;;;;;;;;;;;;27.70;55.55;99217.41;5029334;28;20041;-87
2022/07/07 07:09:45;;;;;;;;;;;;;;;27.72;54.65;99206.56;4995646;28;19921;-88
2022/07/07 07:12:11;;;;;;;39.25;24.60;;;;;;;27.33;55.09;99149.94;4992260;28;19976;-88
2022/07/07 07:14:38;;;;;;;54.40;25.75;;;;;;;27.53;54.58;99175.22;5015194;28;20046;-88
2022/07/07 07:17:06;;;;;;;42.92;24.17;;;;;;;27.43;55.11;99150.16;4996053;28;20038;-92
2022/07/07 07:19:32;;;;;;;43.72;25.50;;;;;;;27.63;54.55;99165.00;5025290;28;20132;-89
2022/07/07 07:21:59;;;;;;;42.58;26.05;;;;;;;27.76;53.59;99174.38;5007145;28;20041;-87
2022/07/07 07:24:25;;;;;;;47.58;23.92;;;;;;;27.82;53.81;99178.28;4996089;28;20136;-86
2022/07/07 07:26:52;;;;;;;40.05;24.58;;;;;;;28.05;53.80;99201.88;5009326;28;20061;-87
2022/07/07 07:29:18;;;;;;;45.45;26.45;;;;;;;27.89;53.96;99170.91;4984448;28;20054;-87
2022/07/07 07:31:44;;;;;;;37.03;24.55;;;;;;;28.13;53.96;99197.66;5012215;28;20397;-87
2022/07/07 07:34:10;;;;;;;47.83;25.42;;;;;;;27.75;53.39;99127.84;5013267;28;20112;-87
2022/07/07 07:36:36;;;;;;;39.58;24.88;;;;;;;28.22;52.58;99202.72;5015677;28;21030;-86
2022/07/07 07:39:03;;;;;;;43.60;24.27;;;;;;;28.10;52.40;99181.69;5022345;28;20069;-96
2022/07/07 07:41:31;;;;;;;37.63;24.02;;;;;;;28.01;51.91;99159.00;5015624;28;20060;-88
2022/07/07 07:43:58;;;;;;;45.33;23.50;;;;;;;28.10;52.73;99153.56;5015709;28;20402;-89
2022/07/07 07:46:24;;;;;;;42.67;25.10;;;;;;;28.42;51.87;99197.84;5007110;28;20053;-85
2022/07/07 07:48:50;;;;;;;46.83;25.20;;;;;;;28.36;52.36;99174.25;5025950;28;20040;-87
2022/07/07 07:51:19;;;;;;;52.10;26.48;;;;;;;28.34;51.47;99157.03;4986134;28;20049;-92
2022/07/07 07:53:45;;;;;;;49.10;26.42;;;;;;;28.32;51.50;99140.63;5017888;28;20399;-90
2022/07/07 07:56:11;;;;;;;53.80;27.25;;;;;;;28.65;51.11;99191.28;4979903;28;20388;-84
2022/07/07 07:58:38;;;;;;;45.63;26.30;;;;;;;28.69;50.27;99183.53;5019124;28;20052;-93
2022/07/07 08:01:05;;;;;;;59.83;27.77;;;;;;;28.66;50.23;99173.16;4980188;28;20119;-87
2022/07/07 08:03:31;;;;;;;50.08;27.35;;;;;;;28.83;50.51;99188.00;5013147;28;20053;-87
2022/07/07 08:05:57;;;;;;;47.22;28.27;;;;;;;28.74;50.18;99162.50;4999117;28;20117;-86
2022/07/07 08:08:23;;;;;;;53.45;30.27;;;;;;;28.69;50.42;99155.41;4996952;28;20037;-90
2022/07/07 08:10:54;;;;;;;48.45;29.27;;;;;;;28.78;49.73;99171.69;5007571;28;20069;-92
2022/07/07 08:13:21;;;;;;;47.65;28.73;;;;;;;28.93;49.15;99183.34;4998620;28;20052;-90
2022/07/07 08:15:47;;;;;;;54.05;30.10;;;;;;;28.97;48.46;99184.03;5009514;28;20096;-86
2022/07/07 08:18:13;;;;;;;62.42;30.70;;;;;;;29.11;48.20;99185.75;4989327;28;20030;-85
2022/07/07 08:20:40;;;;;;;60.67;30.80;;;;;;;29.15;49.35;99187.22;5015498;28;20077;-87
2022/07/07 08:23:06;;;;;;;47.45;30.42;;;;;;;29.02;47.74;99161.81;5001855;28;20068;-87
2022/07/07 08:25:35;;;;;;;49.75;30.65;;;;;;;29.41;48.89;99207.06;5018635;28;20033;-86
2022/07/07 08:28:02;;;;;;;49.05;30.50;;;;;;;29.42;48.38;99183.28;5020362;28;20057;-88
2022/07/07 08:30:28;;;;;;;;;;;;;;;29.56;48.36;99211.06;5019255;28;20568;-86
2022/07/07 08:32:54;;;;;;;53.38;30.02;;;;;;;29.59;48.98;99215.00;5026325;28;19968;-89
2022/07/07 08:35:28;;;;;;;63.88;31.67;;;;;;;29.53;47.56;99209.13;5017153;28;20133;-94
2022/07/07 08:37:56;;;;;;;59.05;31.23;;;;;;;29.40;47.83;99186.53;4997691;28;20088;-93
2022/07/07 08:40:22;;;;;;;57.45;30.13;;;;;;;29.47;46.70;99197.63;4998490;28;20128;-91
2022/07/07 08:42:49;;;;;;;62.15;31.98;;;;;;;29.59;47.16;99215.78;4993658;28;20128;-92
2022/07/07 08:45:41;;;;;;;57.15;32.30;;;;;;;29.60;47.69;99205.34;5018808;28;20052;-93
2022/07/07 08:48:07;;;;;;;58.28;31.95;;;;;;;29.53;45.48;99195.03;4967780;28;20070;-91
2022/07/07 08:50:34;;;;;;;;;;;;;;;29.66;45.98;99217.66;4977479;28;20042;-93
2022/07/07 08:53:01;;;;;;;64.72;31.52;;;;;;;29.65;46.92;99214.06;4973296;28;20049;-96
2022/07/07 08:55:30;;;;;;;62.03;32.40;;;;;;;29.49;47.98;99175.44;4979756;28;20045;-92
2022/07/07 08:57:58;;;;;;;75.00;32.97;;;;;;;29.77;46.30;99203.25;4982186;28;20022;-92
2022/07/07 09:00:34;;;;;;;60.28;32.00;;;;;;;29.78;46.31;99194.38;4995721;28;20053;-92
2022/07/07 09:03:07;;;;;;;55.45;32.25;;;;;;;29.81;45.53;99201.16;5034246;28;20029;-87
2022/07/07 09:05:42;;;;;;;54.67;29.77;;;;;;;29.68;43.62;99190.63;5008302;28;20114;-87
2022/07/07 09:09:05;;;;;;;57.40;32.70;;;;;;;29.73;45.75;99195.72;5016533;28;20033;-91
2022/07/07 09:12:03;;;;;;;60.42;32.97;;;;;;;29.75;45.02;99184.00;5028250;28;20415;-88
2022/07/07 09:14:43;;;;;;;71.28;33.72;;;;;;;30.09;45.13;99207.97;5001074;28;20041;-90
2022/07/07 09:17:36;;;;;;;58.95;33.60;;;;;;;30.06;46.49;99191.94;5015936;28;20044;-89
2022/07/07 09:20:13;;;;;;;66.00;32.72;;;;;;;30.13;44.81;99171.97;5018200;28;20064;-89
2022/07/07 09:22:58;;;;;;;65.80;33.72;;;;;;;30.51;44.36;99205.88;5014704;28;20046;-89
2022/07/07 09:25:57;;;;;;;57.88;33.78;;;;;;;30.39;44.02;99192.56;4996180;28;20074;-94
2022/07/07 09:28:41;;;;;;;57.75;31.98;;;;;;;30.32;43.07;99206.88;4964992;28;20104;-90
2022/07/07 09:31:13;;;;;;;64.20;30.08;;;;;;;29.94;42.96;99168.94;5004174;28;20046;-91
2022/07/07 09:33:41;;;;;;;58.83;32.47;;;;;;;30.21;44.10;99218.50;5001637;28;20098;-90
2022/07/07 09:39:20;;;;;;;60.67;32.03;;;;;;;30.10;44.26;99201.06;4980291;28;20078;-91
2022/07/07 09:41:49;;;;;;;54.17;31.77;;;;;;;30.36;44.39;99210.38;4970439;28;20042;-91
2022/07/07 09:44:24;;;;;;;65.40;31.17;;;;;;;30.22;43.39;99174.16;5000584;28;20069;-93
2022/07/07 09:47:08;;;;;;;51.80;31.08;;;;;;;30.42;42.69;99188.84;4991719;28;20051;-90
2022/07/07 09:50:04;;;;;;;56.70;32.35;;;;;;;30.32;44.41;99156.13;4999888;28;20077;-89
2022/07/07 09:52:37;;;;;;;58.55;31.42;;;;;;;30.69;43.60;99191.19;4973730;28;20047;-88
2022/07/07 09:55:08;;;;;;;60.17;30.77;;;;;;;30.46;42.82;99166.16;4993452;28;20049;-88
2022/07/07 09:57:48;;;;;;;63.00;32.42;;;;;;;30.61;43.37;99199.09;5021966;28;20483;-89
2022/07/07 10:00:47;;;;;;;59.72;33.33;;;;;;;30.45;43.30;99190.75;4994288;28;20507;-87
2022/07/07 10:03:15;;;;;;;60.97;31.52;;;;;;;30.42;44.21;99188.84;5015203;28;20529;-94
2022/07/07 10:05:41;;;;;;;65.22;32.67;;;;;;;30.50;42.96;99195.03;4959366;28;20560;-88
2022/07/07 10:08:09;;;;;;;58.42;33.10;;;;;;;30.30;43.59;99165.03;5012297;28;20120;-88
2022/07/07 10:10:35;;;;;;;;;;;;;;;30.65;43.97;99202.59;4984969;28;20033;-89
2022/07/07 10:13:03;;;;;;;55.25;32.05;;;;;;;30.47;43.01;99168.53;4972052;28;19922;-89
2022/07/07 10:15:30;;;;;;;71.35;32.90;;;;;;;30.83;42.94;99198.44;5004591;28;20104;-88
2022/07/07 10:18:10;;;;;;;59.67;31.67;;;;;;;30.86;41.77;99172.09;4989314;28;20070;-95
2022/07/07 10:20:42;;;;;;;80.38;33.38;;;;;;;31.10;43.57;99178.94;5022044;28;20045;-92
2022/07/07 10:23:09;;;;;;;60.88;32.88;;;;;;;31.19;41.80;99169.75;4990075;28;20057;-96
2022/07/07 10:25:37;;;;;;;57.30;33.58;;;;;;;30.94;42.44;99135.97;4989785;28;20069;-96
2022/07/07 10:28:04;;;;;;;87.35;33.28;;;;;;;31.15;42.30;99165.47;4979905;28;20470;-92
2022/07/07 10:30:31;;;;;;;80.93;35.08;;;;;;;31.15;40.67;99171.91;4991408;28;20081;-93
2022/07/07 10:33:03;;;;;;;62.28;33.80;;;;;;;31.25;40.88;99189.72;4992147;28;20558;-91
2022/07/07 10:35:40;;;;;;;69.57;33.30;;;;;;;31.20;42.16;99202.41;5013002;28;20147;-92
2022/07/07 10:38:13;;;;;;;54.92;33.15;;;;;;;31.15;41.45;99196.53;4981620;28;20185;-96
2022/07/07 10:40:50;;;;;;;59.13;33.03;;;;;;;31.23;41.69;99209.19;5014046;28;20041;-93
2022/07/07 10:43:47;;;;;;;63.13;34.58;;;;;;;31.22;42.79;99199.09;5019853;28;20050;-89
2022/07/07 10:46:13;;;;;;;57.72;32.50;;;;;;;31.18;42.14;99190.75;5017904;28;20041;-93
2022/07/07 10:48:47;;;;;;;;;;;;;;;31.32;41.45;99209.25;5027861;28;20101;-88
2022/07/07 10:51:23;;;;;;;56.05;32.83;;;;;;;31.15;41.53;99185.25;5005191;28;19921;-90
2022/07/07 10:54:10;;;;;;;58.22;32.90;;;;;;;31.15;42.63;99182.41;4979389;28;20402;-89
2022/07/07 10:56:53;;;;;;;71.30;36.70;;;;;;;31.35;43.65;99205.53;5033294;28;20030;-90
2022/07/07 10:59:23;;;;;;;64.10;33.38;;;;;;;31.30;42.87;99191.97;4976836;28;21455;-93
2022/07/07 11:02:02;;;;;;;57.55;32.75;;;;;;;31.44;41.87;99202.78;5011051;28;20400;-91
2022/07/07 11:04:45;;;;;;;69.63;32.42;;;;;;;31.57;41.35;99194.25;4987714;28;20053;-93
2022/07/07 11:07:24;;;;;;;54.47;32.58;;;;;;;31.70;40.69;99192.16;5012272;28;20064;-91
2022/07/07 11:10:10;;;;;;;81.10;36.22;;;;;;;31.63;41.51;99163.38;4970207;28;20043;-91
2022/07/07 11:12:53;;;;;;;52.30;34.25;;;;;;;31.70;40.60;99171.59;4971612;28;20785;-91
2022/07/07 11:15:22;;;;;;;59.22;31.08;;;;;;;31.80;39.44;99188.16;4950626;29;20130;-93
2022/07/07 11:18:01;;;;;;;63.88;34.85;;;;;;;31.82;40.39;99193.31;4943618;28;20055;-94
2022/07/07 11:20:32;;;;;;;57.53;32.33;;;;;;;31.75;39.45;99177.41;4937438;28;20050;-93
2022/07/07 11:23:12;;;;;;;77.95;35.47;;;;;;;31.84;40.21;99188.00;4957134;28;20039;-92
2022/07/07 11:25:41;;;;;;;71.68;34.70;;;;;;;31.73;39.68;99162.97;4952403;29;20643;-92
2022/07/07 11:28:11;;;;;;;60.05;33.30;;;;;;;31.57;39.12;99172.44;4968643;28;20034;-96
2022/07/07 11:30:41;;;;;;;69.57;34.30;;;;;;;31.57;39.86;99154.69;5011011;28;20054;-95
2022/07/07 11:33:08;;;;;;;55.40;33.30;;;;;;;31.67;38.69;99176.13;4994437;28;20066;-91
2022/07/07 11:35:37;;;;;;;62.83;34.67;;;;;;;31.73;38.58;99173.50;4944088;28;20085;-94